sensor_id;sensor_type;location;lat;lon;timestamp;P1;durP1;ratioP1;P2;durP2;ratioP2
49029;SDS011;43337;52.070;4.508;2023-04-24T00:00:34;0.00;;;0.00;;
49029;SDS011;43337;52.070;4.508;2023-04-24T00:02:59;0.00;;;0.00;;
49029;SDS011;43337;52.070;4.508;2023-04-24T00:05:24;0.00;;;0.00;;
49029;SDS011;43337;52.070;4.508;2023-04-24T00:07:50;0.00;;;0.00;;
49029;SDS011;43337;52.070;4.508;2023-04-24T00:10:19;0.00;;;0.00;;
49029;SDS011;43337;52.070;4.508;2023-04-24T00:12:44;0.00;;;0.00;;
49029;SDS011;43337;52.070;4.508;2023-04-24T00:15:10;0.00;;;0.00;;
49029;SDS011;43337;52.070;4.508;2023-04-24T00:17:36;0.00;;;0.00;;
49029;SDS011;43337;52.070;4.508;2023-04-24T00:20:02;0.00;;;0.00;;
49029;SDS011;43337;52.070;4.508;2023-04-24T00:22:29;0.00;;;0.00;;
49029;SDS011;43337;52.070;4.508;2023-04-24T00:24:55;0.00;;;0.00;;
49029;SDS011;43337;52.070;4.508;2023-04-24T00:27:21;0.00;;;0.00;;
49029;SDS011;43337;52.070;4.508;2023-04-24T00:29:47;0.00;;;0.00;;
49029;SDS011;43337;52.070;4.508;2023-04-24T00:32:13;0.00;;;0.00;;
49029;SDS011;43337;52.070;4.508;2023-04-24T00:34:39;0.00;;;0.00;;
49029;SDS011;43337;52.070;4.508;2023-04-24T00:37:04;0.00;;;0.00;;
49029;SDS011;43337;52.070;4.508;2023-04-24T00:39:30;0.00;;;0.00;;
49029;SDS011;43337;52.070;4.508;2023-04-24T00:41:55;0.00;;;0.00;;
49029;SDS011;43337;52.070;4.508;2023-04-24T00:44:21;0.00;;;0.00;;
49029;SDS011;43337;52.070;4.508;2023-04-24T00:46:47;0.00;;;0.00;;
49029;SDS011;43337;52.070;4.508;2023-04-24T00:49:17;0.00;;;0.00;;
49029;SDS011;43337;52.070;4.508;2023-04-24T00:51:44;0.00;;;0.00;;
49029;SDS011;43337;52.070;4.508;2023-04-24T00:54:10;0.00;;;0.00;;
49029;SDS011;43337;52.070;4.508;2023-04-24T00:56:37;0.00;;;0.00;;
49029;SDS011;43337;52.070;4.508;2023-04-24T00:59:03;0.00;;;0.00;;
49029;SDS011;43337;52.070;4.508;2023-04-24T01:01:29;0.00;;;0.00;;
49029;SDS011;43337;52.070;4.508;2023-04-24T01:03:55;0.00;;;0.00;;
49029;SDS011;43337;52.070;4.508;2023-04-24T01:06:22;0.00;;;0.00;;
49029;SDS011;43337;52.070;4.508;2023-04-24T01:08:49;0.00;;;0.00;;
49029;SDS011;43337;52.070;4.508;2023-04-24T01:11:15;0.10;;;0.10;;
49029;SDS011;43337;52.070;4.508;2023-04-24T01:13:40;0.00;;;0.00;;
49029;SDS011;43337;52.070;4.508;2023-04-24T01:16:06;0.00;;;0.00;;
49029;SDS011;43337;52.070;4.508;2023-04-24T01:18:31;0.00;;;0.00;;
49029;SDS011;43337;52.070;4.508;2023-04-24T01:20:57;0.00;;;0.00;;
49029;SDS011;43337;52.070;4.508;2023-04-24T01:23:24;0.00;;;0.00;;
49029;SDS011;43337;52.070;4.508;2023-04-24T01:25:51;0.00;;;0.00;;
49029;SDS011;43337;52.070;4.508;2023-04-24T01:28:17;0.00;;;0.00;;
49029;SDS011;43337;52.070;4.508;2023-04-24T01:30:43;0.00;;;0.00;;
49029;SDS011;43337;52.070;4.508;2023-04-24T01:33:09;0.00;;;0.00;;
49029;SDS011;43337;52.070;4.508;2023-04-24T01:35:35;0.00;;;0.00;;
49029;SDS011;43337;52.070;4.508;2023-04-24T01:38:02;0.00;;;0.00;;
49029;SDS011;43337;52.070;4.508;2023-04-24T01:40:27;0.00;;;0.00;;
49029;SDS011;43337;52.070;4.508;2023-04-24T01:42:53;0.00;;;0.00;;
49029;SDS011;43337;52.070;4.508;2023-04-24T01:45:18;0.00;;;0.00;;
49029;SDS011;43337;52.070;4.508;2023-04-24T01:47:44;0.00;;;0.00;;
49029;SDS011;43337;52.070;4.508;2023-04-24T01:50:11;0.03;;;0.03;;
49029;SDS011;43337;52.070;4.508;2023-04-24T01:52:36;0.00;;;0.00;;
49029;SDS011;43337;52.070;4.508;2023-04-24T01:55:02;0.00;;;0.00;;
49029;SDS011;43337;52.070;4.508;2023-04-24T01:57:29;0.00;;;0.00;;
49029;SDS011;43337;52.070;4.508;2023-04-24T01:59:55;0.00;;;0.00;;
49029;SDS011;43337;52.070;4.508;2023-04-24T02:02:21;0.00;;;0.00;;
49029;SDS011;43337;52.070;4.508;2023-04-24T02:04:48;0.00;;;0.00;;
49029;SDS011;43337;52.070;4.508;2023-04-24T02:07:14;0.00;;;0.00;;
49029;SDS011;43337;52.070;4.508;2023-04-24T02:09:39;0.00;;;0.00;;
49029;SDS011;43337;52.070;4.508;2023-04-24T02:12:05;0.00;;;0.00;;
49029;SDS011;43337;52.070;4.508;2023-04-24T02:14:30;0.00;;;0.00;;
49029;SDS011;43337;52.070;4.508;2023-04-24T02:16:56;0.00;;;0.00;;
49029;SDS011;43337;52.070;4.508;2023-04-24T02:19:21;0.00;;;0.00;;
49029;SDS011;43337;52.070;4.508;2023-04-24T02:21:46;0.00;;;0.00;;
49029;SDS011;43337;52.070;4.508;2023-04-24T02:24:11;0.00;;;0.00;;
49029;SDS011;43337;52.070;4.508;2023-04-24T02:26:37;0.00;;;0.00;;
49029;SDS011;43337;52.070;4.508;2023-04-24T02:29:02;0.00;;;0.00;;
49029;SDS011;43337;52.070;4.508;2023-04-24T02:31:27;0.00;;;0.00;;
49029;SDS011;43337;52.070;4.508;2023-04-24T02:33:53;0.00;;;0.00;;
49029;SDS011;43337;52.070;4.508;2023-04-24T02:36:18;0.00;;;0.00;;
49029;SDS011;43337;52.070;4.508;2023-04-24T02:38:45;0.00;;;0.00;;
49029;SDS011;43337;52.070;4.508;2023-04-24T02:41:10;0.00;;;0.00;;
49029;SDS011;43337;52.070;4.508;2023-04-24T02:43:36;0.00;;;0.00;;
49029;SDS011;43337;52.070;4.508;2023-04-24T02:46:01;0.00;;;0.00;;
49029;SDS011;43337;52.070;4.508;2023-04-24T02:48:27;0.00;;;0.00;;
49029;SDS011;43337;52.070;4.508;2023-04-24T02:50:52;0.00;;;0.00;;
49029;SDS011;43337;52.070;4.508;2023-04-24T02:53:18;0.00;;;0.00;;
49029;SDS011;43337;52.070;4.508;2023-04-24T02:55:43;0.00;;;0.00;;
49029;SDS011;43337;52.070;4.508;2023-04-24T02:58:08;0.00;;;0.00;;
49029;SDS011;43337;52.070;4.508;2023-04-24T03:00:35;0.00;;;0.00;;
49029;SDS011;43337;52.070;4.508;2023-04-24T03:03:00;0.00;;;0.00;;
49029;SDS011;43337;52.070;4.508;2023-04-24T03:05:26;0.00;;;0.00;;
49029;SDS011;43337;52.070;4.508;2023-04-24T03:07:52;0.00;;;0.00;;
49029;SDS011;43337;52.070;4.508;2023-04-24T03:10:17;0.00;;;0.00;;
49029;SDS011;43337;52.070;4.508;2023-04-24T03:12:43;0.00;;;0.00;;
49029;SDS011;43337;52.070;4.508;2023-04-24T03:15:09;0.00;;;0.00;;
49029;SDS011;43337;52.070;4.508;2023-04-24T03:17:34;0.00;;;0.00;;
49029;SDS011;43337;52.070;4.508;2023-04-24T03:20:00;0.00;;;0.00;;
49029;SDS011;43337;52.070;4.508;2023-04-24T03:22:26;0.00;;;0.00;;
49029;SDS011;43337;52.070;4.508;2023-04-24T03:24:51;0.00;;;0.00;;
49029;SDS011;43337;52.070;4.508;2023-04-24T03:27:17;0.00;;;0.00;;
49029;SDS011;43337;52.070;4.508;2023-04-24T03:29:42;0.00;;;0.00;;
49029;SDS011;43337;52.070;4.508;2023-04-24T03:32:07;0.00;;;0.00;;
49029;SDS011;43337;52.070;4.508;2023-04-24T03:34:33;0.00;;;0.00;;
49029;SDS011;43337;52.070;4.508;2023-04-24T03:36:58;0.00;;;0.00;;
49029;SDS011;43337;52.070;4.508;2023-04-24T03:39:23;0.00;;;0.00;;
49029;SDS011;43337;52.070;4.508;2023-04-24T03:41:50;0.00;;;0.00;;
49029;SDS011;43337;52.070;4.508;2023-04-24T03:47:04;0.00;;;0.00;;
49029;SDS011;43337;52.070;4.508;2023-04-24T03:49:30;0.00;;;0.00;;
49029;SDS011;43337;52.070;4.508;2023-04-24T03:51:55;0.00;;;0.00;;
49029;SDS011;43337;52.070;4.508;2023-04-24T03:54:20;0.00;;;0.00;;
49029;SDS011;43337;52.070;4.508;2023-04-24T03:56:46;0.00;;;0.00;;
49029;SDS011;43337;52.070;4.508;2023-04-24T03:59:11;0.00;;;0.00;;
49029;SDS011;43337;52.070;4.508;2023-04-24T04:01:43;0.00;;;0.00;;
49029;SDS011;43337;52.070;4.508;2023-04-24T04:04:08;0.00;;;0.00;;
49029;SDS011;43337;52.070;4.508;2023-04-24T04:06:34;0.00;;;0.00;;
49029;SDS011;43337;52.070;4.508;2023-04-24T04:09:01;0.00;;;0.00;;
49029;SDS011;43337;52.070;4.508;2023-04-24T04:11:26;0.00;;;0.00;;
49029;SDS011;43337;52.070;4.508;2023-04-24T04:13:52;0.00;;;0.00;;
49029;SDS011;43337;52.070;4.508;2023-04-24T04:16:17;0.00;;;0.00;;
49029;SDS011;43337;52.070;4.508;2023-04-24T04:18:43;0.00;;;0.00;;
49029;SDS011;43337;52.070;4.508;2023-04-24T04:21:09;0.00;;;0.00;;
49029;SDS011;43337;52.070;4.508;2023-04-24T04:23:34;0.00;;;0.00;;
49029;SDS011;43337;52.070;4.508;2023-04-24T04:26:00;0.00;;;0.00;;
49029;SDS011;43337;52.070;4.508;2023-04-24T04:28:26;0.00;;;0.00;;
49029;SDS011;43337;52.070;4.508;2023-04-24T04:30:51;0.00;;;0.00;;
49029;SDS011;43337;52.070;4.508;2023-04-24T04:33:20;0.00;;;0.00;;
49029;SDS011;43337;52.070;4.508;2023-04-24T04:35:46;0.00;;;0.00;;
49029;SDS011;43337;52.070;4.508;2023-04-24T04:38:15;0.00;;;0.00;;
49029;SDS011;43337;52.070;4.508;2023-04-24T04:40:41;0.00;;;0.00;;
49029;SDS011;43337;52.070;4.508;2023-04-24T04:43:07;0.00;;;0.00;;
49029;SDS011;43337;52.070;4.508;2023-04-24T04:45:33;0.00;;;0.00;;
49029;SDS011;43337;52.070;4.508;2023-04-24T04:47:59;0.00;;;0.00;;
49029;SDS011;43337;52.070;4.508;2023-04-24T04:50:28;0.00;;;0.00;;
49029;SDS011;43337;52.070;4.508;2023-04-24T04:52:54;0.00;;;0.00;;
49029;SDS011;43337;52.070;4.508;2023-04-24T04:55:19;0.00;;;0.00;;
49029;SDS011;43337;52.070;4.508;2023-04-24T04:57:45;0.00;;;0.00;;
49029;SDS011;43337;52.070;4.508;2023-04-24T05:00:11;0.20;;;0.20;;
49029;SDS011;43337;52.070;4.508;2023-04-24T05:02:37;0.00;;;0.00;;
49029;SDS011;43337;52.070;4.508;2023-04-24T05:05:05;0.00;;;0.00;;
49029;SDS011;43337;52.070;4.508;2023-04-24T05:07:31;0.00;;;0.00;;
49029;SDS011;43337;52.070;4.508;2023-04-24T05:09:57;0.08;;;0.05;;
49029;SDS011;43337;52.070;4.508;2023-04-24T05:12:22;0.00;;;0.00;;
49029;SDS011;43337;52.070;4.508;2023-04-24T05:14:47;0.00;;;0.00;;
49029;SDS011;43337;52.070;4.508;2023-04-24T05:17:13;0.00;;;0.00;;
49029;SDS011;43337;52.070;4.508;2023-04-24T05:19:38;0.00;;;0.00;;
49029;SDS011;43337;52.070;4.508;2023-04-24T05:22:04;0.00;;;0.00;;
49029;SDS011;43337;52.070;4.508;2023-04-24T05:24:31;0.00;;;0.00;;
49029;SDS011;43337;52.070;4.508;2023-04-24T05:26:57;0.10;;;0.10;;
49029;SDS011;43337;52.070;4.508;2023-04-24T05:29:23;0.00;;;0.00;;
49029;SDS011;43337;52.070;4.508;2023-04-24T05:31:49;0.47;;;0.47;;
49029;SDS011;43337;52.070;4.508;2023-04-24T05:34:14;0.00;;;0.00;;
49029;SDS011;43337;52.070;4.508;2023-04-24T05:36:41;0.00;;;0.00;;
49029;SDS011;43337;52.070;4.508;2023-04-24T05:39:07;0.00;;;0.00;;
49029;SDS011;43337;52.070;4.508;2023-04-24T05:41:33;0.00;;;0.00;;
49029;SDS011;43337;52.070;4.508;2023-04-24T05:43:59;0.00;;;0.00;;
49029;SDS011;43337;52.070;4.508;2023-04-24T05:46:24;0.00;;;0.00;;
49029;SDS011;43337;52.070;4.508;2023-04-24T05:48:50;0.00;;;0.00;;
49029;SDS011;43337;52.070;4.508;2023-04-24T05:51:15;0.00;;;0.00;;
49029;SDS011;43337;52.070;4.508;2023-04-24T05:53:40;0.00;;;0.00;;
49029;SDS011;43337;52.070;4.508;2023-04-24T05:56:06;0.00;;;0.00;;
49029;SDS011;43337;52.070;4.508;2023-04-24T05:58:31;0.00;;;0.00;;
49029;SDS011;43337;52.070;4.508;2023-04-24T06:00:56;0.00;;;0.00;;
49029;SDS011;43337;52.070;4.508;2023-04-24T06:03:23;0.00;;;0.00;;
49029;SDS011;43337;52.070;4.508;2023-04-24T06:05:49;0.00;;;0.00;;
49029;SDS011;43337;52.070;4.508;2023-04-24T06:08:16;0.00;;;0.00;;
49029;SDS011;43337;52.070;4.508;2023-04-24T06:10:41;0.00;;;0.00;;
49029;SDS011;43337;52.070;4.508;2023-04-24T06:13:07;0.00;;;0.00;;
49029;SDS011;43337;52.070;4.508;2023-04-24T06:15:32;0.00;;;0.00;;
49029;SDS011;43337;52.070;4.508;2023-04-24T06:17:58;0.00;;;0.00;;
49029;SDS011;43337;52.070;4.508;2023-04-24T06:20:23;0.00;;;0.00;;
49029;SDS011;43337;52.070;4.508;2023-04-24T06:22:49;0.00;;;0.00;;
49029;SDS011;43337;52.070;4.508;2023-04-24T06:25:15;0.00;;;0.00;;
49029;SDS011;43337;52.070;4.508;2023-04-24T06:27:40;0.00;;;0.00;;
49029;SDS011;43337;52.070;4.508;2023-04-24T06:30:06;0.00;;;0.00;;
49029;SDS011;43337;52.070;4.508;2023-04-24T06:32:32;0.00;;;0.00;;
49029;SDS011;43337;52.070;4.508;2023-04-24T06:34:57;0.00;;;0.00;;
49029;SDS011;43337;52.070;4.508;2023-04-24T06:37:23;0.00;;;0.00;;
49029;SDS011;43337;52.070;4.508;2023-04-24T06:39:48;0.00;;;0.00;;
49029;SDS011;43337;52.070;4.508;2023-04-24T06:42:14;0.30;;;0.20;;
49029;SDS011;43337;52.070;4.508;2023-04-24T06:44:39;0.47;;;0.47;;
49029;SDS011;43337;52.070;4.508;2023-04-24T06:47:08;0.38;;;0.38;;
49029;SDS011;43337;52.070;4.508;2023-04-24T06:49:34;0.20;;;0.20;;
49029;SDS011;43337;52.070;4.508;2023-04-24T06:52:00;1.75;;;1.23;;
49029;SDS011;43337;52.070;4.508;2023-04-24T06:54:26;0.00;;;0.00;;
49029;SDS011;43337;52.070;4.508;2023-04-24T06:56:51;0.75;;;0.47;;
49029;SDS011;43337;52.070;4.508;2023-04-24T06:59:17;0.00;;;0.00;;
49029;SDS011;43337;52.070;4.508;2023-04-24T07:01:42;0.08;;;0.08;;
49029;SDS011;43337;52.070;4.508;2023-04-24T07:04:08;0.03;;;0.03;;
49029;SDS011;43337;52.070;4.508;2023-04-24T07:06:33;0.00;;;0.00;;
49029;SDS011;43337;52.070;4.508;2023-04-24T07:09:00;0.00;;;0.00;;
49029;SDS011;43337;52.070;4.508;2023-04-24T07:11:26;0.00;;;0.00;;
49029;SDS011;43337;52.070;4.508;2023-04-24T07:13:54;0.00;;;0.00;;
49029;SDS011;43337;52.070;4.508;2023-04-24T07:16:19;0.00;;;0.00;;
49029;SDS011;43337;52.070;4.508;2023-04-24T07:18:45;0.00;;;0.00;;
49029;SDS011;43337;52.070;4.508;2023-04-24T07:21:10;0.00;;;0.00;;
49029;SDS011;43337;52.070;4.508;2023-04-24T07:23:36;0.00;;;0.00;;
49029;SDS011;43337;52.070;4.508;2023-04-24T07:26:01;0.00;;;0.00;;
49029;SDS011;43337;52.070;4.508;2023-04-24T07:28:27;0.00;;;0.00;;
49029;SDS011;43337;52.070;4.508;2023-04-24T07:30:55;0.00;;;0.00;;
49029;SDS011;43337;52.070;4.508;2023-04-24T07:33:21;0.10;;;0.10;;
49029;SDS011;43337;52.070;4.508;2023-04-24T07:35:47;0.00;;;0.00;;
49029;SDS011;43337;52.070;4.508;2023-04-24T07:38:12;0.00;;;0.00;;
49029;SDS011;43337;52.070;4.508;2023-04-24T07:40:37;0.03;;;0.03;;
49029;SDS011;43337;52.070;4.508;2023-04-24T07:43:03;0.00;;;0.00;;
49029;SDS011;43337;52.070;4.508;2023-04-24T07:45:28;0.00;;;0.00;;
49029;SDS011;43337;52.070;4.508;2023-04-24T07:47:53;0.00;;;0.00;;
49029;SDS011;43337;52.070;4.508;2023-04-24T07:50:19;0.00;;;0.00;;
49029;SDS011;43337;52.070;4.508;2023-04-24T07:52:45;0.00;;;0.00;;
49029;SDS011;43337;52.070;4.508;2023-04-24T07:55:10;0.10;;;0.05;;
49029;SDS011;43337;52.070;4.508;2023-04-24T07:57:35;0.00;;;0.00;;
49029;SDS011;43337;52.070;4.508;2023-04-24T08:00:02;0.00;;;0.00;;
49029;SDS011;43337;52.070;4.508;2023-04-24T08:02:30;0.00;;;0.00;;
49029;SDS011;43337;52.070;4.508;2023-04-24T08:04:56;0.00;;;0.00;;
49029;SDS011;43337;52.070;4.508;2023-04-24T08:07:22;0.00;;;0.00;;
49029;SDS011;43337;52.070;4.508;2023-04-24T08:09:48;0.00;;;0.00;;
49029;SDS011;43337;52.070;4.508;2023-04-24T08:12:14;0.00;;;0.00;;
49029;SDS011;43337;52.070;4.508;2023-04-24T08:14:39;0.00;;;0.00;;
49029;SDS011;43337;52.070;4.508;2023-04-24T08:17:05;0.00;;;0.00;;
49029;SDS011;43337;52.070;4.508;2023-04-24T08:19:30;0.00;;;0.00;;
49029;SDS011;43337;52.070;4.508;2023-04-24T08:21:56;0.00;;;0.00;;
49029;SDS011;43337;52.070;4.508;2023-04-24T08:24:21;0.00;;;0.00;;
49029;SDS011;43337;52.070;4.508;2023-04-24T08:26:47;0.00;;;0.00;;
49029;SDS011;43337;52.070;4.508;2023-04-24T08:29:16;0.20;;;0.20;;
49029;SDS011;43337;52.070;4.508;2023-04-24T08:31:42;0.15;;;0.10;;
49029;SDS011;43337;52.070;4.508;2023-04-24T08:34:07;0.00;;;0.00;;
49029;SDS011;43337;52.070;4.508;2023-04-24T08:36:32;0.00;;;0.00;;
49029;SDS011;43337;52.070;4.508;2023-04-24T08:38:58;0.00;;;0.00;;
49029;SDS011;43337;52.070;4.508;2023-04-24T08:41:23;0.00;;;0.00;;
49029;SDS011;43337;52.070;4.508;2023-04-24T08:43:51;0.00;;;0.00;;
49029;SDS011;43337;52.070;4.508;2023-04-24T08:46:16;0.00;;;0.00;;
49029;SDS011;43337;52.070;4.508;2023-04-24T08:48:44;0.00;;;0.00;;
49029;SDS011;43337;52.070;4.508;2023-04-24T08:51:10;0.00;;;0.00;;
49029;SDS011;43337;52.070;4.508;2023-04-24T08:53:36;0.00;;;0.00;;
49029;SDS011;43337;52.070;4.508;2023-04-24T08:56:01;0.00;;;0.00;;
49029;SDS011;43337;52.070;4.508;2023-04-24T08:58:28;0.45;;;0.45;;
49029;SDS011;43337;52.070;4.508;2023-04-24T09:00:54;0.00;;;0.00;;
49029;SDS011;43337;52.070;4.508;2023-04-24T09:03:20;0.00;;;0.00;;
49029;SDS011;43337;52.070;4.508;2023-04-24T09:05:47;0.00;;;0.00;;
49029;SDS011;43337;52.070;4.508;2023-04-24T09:08:14;0.00;;;0.00;;
49029;SDS011;43337;52.070;4.508;2023-04-24T09:10:42;0.05;;;0.05;;
49029;SDS011;43337;52.070;4.508;2023-04-24T09:13:08;0.00;;;0.00;;
49029;SDS011;43337;52.070;4.508;2023-04-24T09:15:35;0.00;;;0.00;;
49029;SDS011;43337;52.070;4.508;2023-04-24T09:18:01;0.00;;;0.00;;
49029;SDS011;43337;52.070;4.508;2023-04-24T09:20:26;0.10;;;0.00;;
49029;SDS011;43337;52.070;4.508;2023-04-24T09:22:55;0.00;;;0.00;;
49029;SDS011;43337;52.070;4.508;2023-04-24T09:25:22;4.15;;;1.17;;
49029;SDS011;43337;52.070;4.508;2023-04-24T09:27:47;0.00;;;0.00;;
49029;SDS011;43337;52.070;4.508;2023-04-24T09:30:13;0.00;;;0.00;;
49029;SDS011;43337;52.070;4.508;2023-04-24T09:32:39;0.00;;;0.00;;
49029;SDS011;43337;52.070;4.508;2023-04-24T09:35:05;0.00;;;0.00;;
49029;SDS011;43337;52.070;4.508;2023-04-24T09:37:36;0.00;;;0.00;;
49029;SDS011;43337;52.070;4.508;2023-04-24T09:40:16;0.10;;;0.10;;
49029;SDS011;43337;52.070;4.508;2023-04-24T09:42:43;0.00;;;0.00;;
49029;SDS011;43337;52.070;4.508;2023-04-24T09:45:11;0.00;;;0.00;;
49029;SDS011;43337;52.070;4.508;2023-04-24T09:47:40;0.00;;;0.00;;
49029;SDS011;43337;52.070;4.508;2023-04-24T09:50:16;0.00;;;0.00;;
49029;SDS011;43337;52.070;4.508;2023-04-24T09:52:43;0.00;;;0.00;;
49029;SDS011;43337;52.070;4.508;2023-04-24T09:55:19;0.00;;;0.00;;
49029;SDS011;43337;52.070;4.508;2023-04-24T09:57:52;0.00;;;0.00;;
49029;SDS011;43337;52.070;4.508;2023-04-24T10:00:26;0.00;;;0.00;;
49029;SDS011;43337;52.070;4.508;2023-04-24T10:03:03;0.00;;;0.00;;
49029;SDS011;43337;52.070;4.508;2023-04-24T10:05:30;0.00;;;0.00;;
49029;SDS011;43337;52.070;4.508;2023-04-24T10:08:00;0.00;;;0.00;;
49029;SDS011;43337;52.070;4.508;2023-04-24T10:10:28;0.00;;;0.00;;
49029;SDS011;43337;52.070;4.508;2023-04-24T10:12:54;0.00;;;0.00;;
49029;SDS011;43337;52.070;4.508;2023-04-24T10:15:20;0.00;;;0.00;;
49029;SDS011;43337;52.070;4.508;2023-04-24T10:17:47;0.00;;;0.00;;
49029;SDS011;43337;52.070;4.508;2023-04-24T10:20:21;0.00;;;0.00;;
49029;SDS011;43337;52.070;4.508;2023-04-24T10:22:48;0.00;;;0.00;;
49029;SDS011;43337;52.070;4.508;2023-04-24T10:25:21;0.00;;;0.00;;
49029;SDS011;43337;52.070;4.508;2023-04-24T10:27:48;0.00;;;0.00;;
49029;SDS011;43337;52.070;4.508;2023-04-24T10:30:15;0.00;;;0.00;;
49029;SDS011;43337;52.070;4.508;2023-04-24T10:32:41;0.00;;;0.00;;
49029;SDS011;43337;52.070;4.508;2023-04-24T10:35:07;0.00;;;0.00;;
49029;SDS011;43337;52.070;4.508;2023-04-24T10:37:37;0.00;;;0.00;;
49029;SDS011;43337;52.070;4.508;2023-04-24T10:40:05;0.00;;;0.00;;
49029;SDS011;43337;52.070;4.508;2023-04-24T10:42:33;0.00;;;0.00;;
49029;SDS011;43337;52.070;4.508;2023-04-24T10:44:59;0.00;;;0.00;;
49029;SDS011;43337;52.070;4.508;2023-04-24T10:47:27;0.00;;;0.00;;
49029;SDS011;43337;52.070;4.508;2023-04-24T10:49:52;0.00;;;0.00;;
49029;SDS011;43337;52.070;4.508;2023-04-24T10:52:18;0.00;;;0.00;;
49029;SDS011;43337;52.070;4.508;2023-04-24T10:54:44;0.00;;;0.00;;
49029;SDS011;43337;52.070;4.508;2023-04-24T10:59:47;0.25;;;0.10;;
49029;SDS011;43337;52.070;4.508;2023-04-24T11:02:37;0.00;;;0.00;;
49029;SDS011;43337;52.070;4.508;2023-04-24T11:05:04;0.00;;;0.00;;
49029;SDS011;43337;52.070;4.508;2023-04-24T11:07:33;0.00;;;0.00;;
49029;SDS011;43337;52.070;4.508;2023-04-24T11:10:33;0.00;;;0.00;;
49029;SDS011;43337;52.070;4.508;2023-04-24T11:13:03;0.00;;;0.00;;
49029;SDS011;43337;52.070;4.508;2023-04-24T11:15:28;0.00;;;0.00;;
49029;SDS011;43337;52.070;4.508;2023-04-24T11:17:55;0.00;;;0.00;;
49029;SDS011;43337;52.070;4.508;2023-04-24T11:20:22;0.00;;;0.00;;
49029;SDS011;43337;52.070;4.508;2023-04-24T11:22:48;0.00;;;0.00;;
49029;SDS011;43337;52.070;4.508;2023-04-24T11:25:17;0.00;;;0.00;;
49029;SDS011;43337;52.070;4.508;2023-04-24T11:27:44;0.00;;;0.00;;
49029;SDS011;43337;52.070;4.508;2023-04-24T11:30:11;0.00;;;0.00;;
49029;SDS011;43337;52.070;4.508;2023-04-24T11:32:38;0.00;;;0.00;;
49029;SDS011;43337;52.070;4.508;2023-04-24T11:35:08;0.73;;;0.45;;
49029;SDS011;43337;52.070;4.508;2023-04-24T11:37:39;0.00;;;0.00;;
49029;SDS011;43337;52.070;4.508;2023-04-24T11:40:11;0.00;;;0.00;;
49029;SDS011;43337;52.070;4.508;2023-04-24T11:42:39;0.00;;;0.00;;
49029;SDS011;43337;52.070;4.508;2023-04-24T11:47:39;0.00;;;0.00;;
49029;SDS011;43337;52.070;4.508;2023-04-24T11:50:06;0.00;;;0.00;;
49029;SDS011;43337;52.070;4.508;2023-04-24T11:52:39;0.00;;;0.00;;
49029;SDS011;43337;52.070;4.508;2023-04-24T11:55:07;6.43;;;1.63;;
49029;SDS011;43337;52.070;4.508;2023-04-24T11:57:34;8.43;;;1.63;;
49029;SDS011;43337;52.070;4.508;2023-04-24T12:00:02;15.65;;;4.70;;
49029;SDS011;43337;52.070;4.508;2023-04-24T12:02:29;11.50;;;2.15;;
49029;SDS011;43337;52.070;4.508;2023-04-24T12:04:55;8.05;;;2.08;;
49029;SDS011;43337;52.070;4.508;2023-04-24T12:07:21;8.43;;;1.50;;
49029;SDS011;43337;52.070;4.508;2023-04-24T12:09:49;12.25;;;2.08;;
49029;SDS011;43337;52.070;4.508;2023-04-24T12:12:23;9.85;;;1.70;;
49029;SDS011;43337;52.070;4.508;2023-04-24T12:17:24;13.10;;;2.25;;
49029;SDS011;43337;52.070;4.508;2023-04-24T12:19:57;18.70;;;3.30;;
49029;SDS011;43337;52.070;4.508;2023-04-24T12:22:27;11.82;;;2.10;;
49029;SDS011;43337;52.070;4.508;2023-04-24T12:24:56;9.20;;;2.08;;
49029;SDS011;43337;52.070;4.508;2023-04-24T12:27:26;10.98;;;2.53;;
49029;SDS011;43337;52.070;4.508;2023-04-24T12:29:56;16.02;;;2.47;;
49029;SDS011;43337;52.070;4.508;2023-04-24T12:32:23;10.98;;;3.40;;
49029;SDS011;43337;52.070;4.508;2023-04-24T12:34:50;18.30;;;3.70;;
49029;SDS011;43337;52.070;4.508;2023-04-24T12:37:16;14.98;;;4.60;;
49029;SDS011;43337;52.070;4.508;2023-04-24T12:42:48;16.65;;;3.13;;
49029;SDS011;43337;52.070;4.508;2023-04-24T12:45:14;11.07;;;3.15;;
49029;SDS011;43337;52.070;4.508;2023-04-24T12:47:41;7.57;;;2.20;;
49029;SDS011;43337;52.070;4.508;2023-04-24T12:50:08;13.45;;;3.28;;
49029;SDS011;43337;52.070;4.508;2023-04-24T12:52:35;13.50;;;2.70;;
49029;SDS011;43337;52.070;4.508;2023-04-24T12:55:01;13.48;;;3.13;;
49029;SDS011;43337;52.070;4.508;2023-04-24T12:57:28;12.73;;;2.78;;
49029;SDS011;43337;52.070;4.508;2023-04-24T12:59:55;8.02;;;2.65;;
49029;SDS011;43337;52.070;4.508;2023-04-24T13:02:22;12.60;;;2.60;;
49029;SDS011;43337;52.070;4.508;2023-04-24T13:04:48;12.35;;;2.67;;
49029;SDS011;43337;52.070;4.508;2023-04-24T13:07:14;18.23;;;3.42;;
49029;SDS011;43337;52.070;4.508;2023-04-24T13:09:43;10.40;;;2.85;;
49029;SDS011;43337;52.070;4.508;2023-04-24T13:12:09;13.10;;;2.47;;
49029;SDS011;43337;52.070;4.508;2023-04-24T13:14:36;10.07;;;1.90;;
49029;SDS011;43337;52.070;4.508;2023-04-24T13:17:02;11.18;;;2.75;;
49029;SDS011;43337;52.070;4.508;2023-04-24T13:19:28;8.75;;;1.80;;
49029;SDS011;43337;52.070;4.508;2023-04-24T13:21:54;8.05;;;2.00;;
49029;SDS011;43337;52.070;4.508;2023-04-24T13:24:22;10.82;;;2.97;;
49029;SDS011;43337;52.070;4.508;2023-04-24T13:26:51;13.07;;;2.38;;
49029;SDS011;43337;52.070;4.508;2023-04-24T13:29:17;11.85;;;2.55;;
49029;SDS011;43337;52.070;4.508;2023-04-24T13:31:42;10.75;;;1.80;;
49029;SDS011;43337;52.070;4.508;2023-04-24T13:34:08;8.85;;;1.92;;
49029;SDS011;43337;52.070;4.508;2023-04-24T13:36:33;9.90;;;1.55;;
49029;SDS011;43337;52.070;4.508;2023-04-24T13:38:59;8.10;;;1.75;;
49029;SDS011;43337;52.070;4.508;2023-04-24T13:41:24;13.25;;;2.40;;
49029;SDS011;43337;52.070;4.508;2023-04-24T13:43:49;13.45;;;3.08;;
49029;SDS011;43337;52.070;4.508;2023-04-24T13:46:15;10.80;;;2.20;;
49029;SDS011;43337;52.070;4.508;2023-04-24T13:48:41;11.48;;;3.35;;
49029;SDS011;43337;52.070;4.508;2023-04-24T13:51:06;10.55;;;2.55;;
49029;SDS011;43337;52.070;4.508;2023-04-24T13:53:31;13.15;;;2.67;;
49029;SDS011;43337;52.070;4.508;2023-04-24T13:55:57;10.63;;;2.80;;
49029;SDS011;43337;52.070;4.508;2023-04-24T13:58:23;11.25;;;2.65;;
49029;SDS011;43337;52.070;4.508;2023-04-24T14:00:48;10.80;;;2.67;;
49029;SDS011;43337;52.070;4.508;2023-04-24T14:03:13;12.05;;;2.20;;
49029;SDS011;43337;52.070;4.508;2023-04-24T14:05:39;17.75;;;3.28;;
49029;SDS011;43337;52.070;4.508;2023-04-24T14:08:04;14.27;;;3.83;;
49029;SDS011;43337;52.070;4.508;2023-04-24T14:10:30;14.65;;;3.50;;
49029;SDS011;43337;52.070;4.508;2023-04-24T14:12:56;12.85;;;3.53;;
49029;SDS011;43337;52.070;4.508;2023-04-24T14:15:21;18.98;;;3.42;;
49029;SDS011;43337;52.070;4.508;2023-04-24T14:17:47;12.48;;;2.55;;
49029;SDS011;43337;52.070;4.508;2023-04-24T14:20:13;15.25;;;3.22;;
49029;SDS011;43337;52.070;4.508;2023-04-24T14:22:39;14.15;;;4.75;;
49029;SDS011;43337;52.070;4.508;2023-04-24T14:25:04;19.98;;;4.72;;
49029;SDS011;43337;52.070;4.508;2023-04-24T14:27:31;16.08;;;3.97;;
49029;SDS011;43337;52.070;4.508;2023-04-24T14:29:57;18.25;;;5.40;;
49029;SDS011;43337;52.070;4.508;2023-04-24T14:32:22;14.90;;;4.55;;
49029;SDS011;43337;52.070;4.508;2023-04-24T14:34:47;11.77;;;4.07;;
49029;SDS011;43337;52.070;4.508;2023-04-24T14:37:13;18.42;;;3.63;;
49029;SDS011;43337;52.070;4.508;2023-04-24T14:39:38;15.32;;;3.38;;
49029;SDS011;43337;52.070;4.508;2023-04-24T14:42:03;15.05;;;3.55;;
49029;SDS011;43337;52.070;4.508;2023-04-24T14:44:30;18.67;;;3.58;;
49029;SDS011;43337;52.070;4.508;2023-04-24T14:46:55;21.77;;;5.03;;
49029;SDS011;43337;52.070;4.508;2023-04-24T14:49:21;13.95;;;3.33;;
49029;SDS011;43337;52.070;4.508;2023-04-24T14:51:46;11.30;;;2.65;;
49029;SDS011;43337;52.070;4.508;2023-04-24T14:54:12;17.95;;;3.78;;